KOXD/OXD METAR and TAF weather

Enter ICAO airport designator
Station Type Date Time Source
KOXD METAR 2019/06/19 01:20 UTC NOAA

KOXD 190120Z AUTO 11003KT 10SM SCT070 BKN120 22/22 A2987 RMK AO2 T02210221


Station Type Date Time Source
KOXD Decoded METAR 2019/06/19 01:20 UTC NOAA

Station name not available
Jun 18, 2019 - 09:20 PM EDT / 2019.06.19 0120 UTC
Wind: from the ESE (110 degrees) at 3 MPH (3 KT):0
Visibility: 10 mile(s):0
Sky conditions: mostly cloudy
Temperature: 71.8 F (22.1 C)
Dew Point: 71.8 F (22.1 C)
Relative Humidity: 100%
Pressure (altimeter): 29.87 in. Hg (1011 hPa)
ob: KOXD 190120Z AUTO 11003KT 10SM SCT070 BKN120 22/22 A2987 RMK AO2 T02210221
cycle: 1

Station Type Date Time Source
KOXD TAF UTC NOAA

Error!

Example: see airport list